createdAt,value
2019-04-04T00:00:14.318Z,80.00
2019-04-04T00:02:44.010Z,80.20
2019-04-04T00:05:12.918Z,80.20
2019-04-04T00:07:41.760Z,80.50
2019-04-04T00:10:11.002Z,80.70
2019-04-04T00:12:39.925Z,80.80
2019-04-04T00:15:08.771Z,80.60
2019-04-04T00:17:37.625Z,79.80
2019-04-04T00:20:07.588Z,79.70
2019-04-04T00:22:36.422Z,79.80
2019-04-04T00:25:09.750Z,79.90
2019-04-04T00:27:36.935Z,80.00
2019-04-04T00:30:07.266Z,80.00
2019-04-04T00:32:36.114Z,79.60
2019-04-04T00:35:05.393Z,79.60
2019-04-04T00:37:34.468Z,79.40
2019-04-04T00:40:06.907Z,79.30
2019-04-04T00:42:35.786Z,79.30
2019-04-04T00:45:06.322Z,79.50
2019-04-04T00:47:35.172Z,80.50
2019-04-04T00:50:06.658Z,79.60
2019-04-04T00:52:34.961Z,79.40
2019-04-04T00:55:04.617Z,79.50
2019-04-04T00:57:33.492Z,79.20
2019-04-04T01:00:03.191Z,79.50
2019-04-04T01:02:32.031Z,79.70
2019-04-04T01:05:01.644Z,80.00
2019-04-04T01:07:31.090Z,80.00
2019-04-04T01:09:59.884Z,80.00
2019-04-04T01:12:28.824Z,80.20
2019-04-04T01:14:58.083Z,80.40
2019-04-04T01:17:28.177Z,80.50
2019-04-04T01:19:57.068Z,80.60
2019-04-04T01:22:25.925Z,80.90
2019-04-04T01:24:54.754Z,81.00
2019-04-04T01:27:23.642Z,81.40
2019-04-04T01:29:52.479Z,80.90
2019-04-04T01:32:21.331Z,80.90
2019-04-04T01:34:52.177Z,80.70
2019-04-04T01:37:20.758Z,80.60
2019-04-04T01:39:49.582Z,81.00
2019-04-04T01:42:18.486Z,81.40
2019-04-04T01:44:47.329Z,81.60
2019-04-04T01:47:17.074Z,82.00
2019-04-04T01:49:46.658Z,82.00
2019-04-04T01:52:15.501Z,82.10
2019-04-04T01:54:44.325Z,82.00
2019-04-04T01:57:13.246Z,81.80
2019-04-04T01:59:43.838Z,81.80
2019-04-04T02:02:13.449Z,82.00
2019-04-04T02:04:42.302Z,82.10
2019-04-04T02:07:11.135Z,82.30
2019-04-04T02:09:40.028Z,81.80
2019-04-04T02:12:08.879Z,81.70
2019-04-04T02:14:37.731Z,81.60
2019-04-04T02:17:06.650Z,81.50
2019-04-04T02:19:35.496Z,81.30
2019-04-04T02:22:04.836Z,81.30
2019-04-04T02:24:33.727Z,81.70
2019-04-04T02:27:02.566Z,82.20
2019-04-04T02:29:31.399Z,82.30
2019-04-04T02:32:01.856Z,82.90
2019-04-04T02:34:30.708Z,82.50
2019-04-04T02:36:59.538Z,82.30
2019-04-04T02:39:28.448Z,82.70
2019-04-04T02:41:57.293Z,82.70
2019-04-04T02:44:26.164Z,82.80
2019-04-04T02:46:55.044Z,82.70
2019-04-04T02:49:27.927Z,82.60
2019-04-04T02:51:54.394Z,82.40
2019-04-04T02:54:24.623Z,82.50
2019-04-04T02:56:53.793Z,82.20
2019-04-04T02:59:22.622Z,81.60
2019-04-04T03:01:56.841Z,81.70
2019-04-04T03:04:25.740Z,81.30
2019-04-04T03:06:57.180Z,81.20
2019-04-04T03:09:25.066Z,81.70
2019-04-04T03:11:54.755Z,81.90
2019-04-04T03:14:23.734Z,81.80
2019-04-04T03:16:56.362Z,81.20
2019-04-04T03:19:23.234Z,81.10
2019-04-04T03:21:54.701Z,81.20
2019-04-04T03:24:22.642Z,81.50
2019-04-04T03:26:52.687Z,81.60
2019-04-04T03:29:21.960Z,81.70
2019-04-04T03:31:50.850Z,81.90
2019-04-04T03:34:19.692Z,81.50
2019-04-04T03:36:48.526Z,81.30
2019-04-04T03:39:19.704Z,81.00
2019-04-04T03:41:47.939Z,80.90
2019-04-04T03:44:19.560Z,81.20
2019-04-04T03:46:47.513Z,81.50
2019-04-04T03:49:16.357Z,82.40
2019-04-04T03:51:45.211Z,81.40
2019-04-04T03:54:22.197Z,81.30
2019-04-04T03:56:49.200Z,81.50
2019-04-04T03:59:18.055Z,81.30
2019-04-04T04:01:47.017Z,81.20
2019-04-04T04:04:15.910Z,81.00
2019-04-04T04:06:44.766Z,81.00
2019-04-04T04:09:13.662Z,81.40
2019-04-04T04:11:42.496Z,81.20
2019-04-04T04:14:11.327Z,80.70
2019-04-04T04:16:40.218Z,80.80
2019-04-04T04:19:09.061Z,80.60
2019-04-04T04:21:37.889Z,80.70
2019-04-04T04:24:06.787Z,80.40
2019-04-04T04:26:35.626Z,80.30
2019-04-04T04:29:04.492Z,80.40
2019-04-04T04:31:33.358Z,80.40
2019-04-04T04:34:02.227Z,80.50
2019-04-04T04:36:31.070Z,80.10
2019-04-04T04:39:00.316Z,79.70
2019-04-04T04:41:29.317Z,79.60
2019-04-04T04:43:58.158Z,79.50
2019-04-04T04:46:27.083Z,79.10
2019-04-04T04:48:55.924Z,79.00
2019-04-04T04:51:24.757Z,78.70
2019-04-04T04:53:53.660Z,78.60
2019-04-04T04:56:22.504Z,78.10
2019-04-04T04:58:51.356Z,77.70
2019-04-04T05:01:20.257Z,77.80
2019-04-04T05:03:50.681Z,77.60
2019-04-04T05:06:19.707Z,77.20
2019-04-04T05:08:49.494Z,77.10
2019-04-04T05:11:19.004Z,77.50
2019-04-04T05:13:48.672Z,77.10
2019-04-04T05:16:17.513Z,77.10
2019-04-04T05:18:48.166Z,76.10
2019-04-04T05:21:24.805Z,76.10
2019-04-04T05:23:47.697Z,75.60
2019-04-04T05:26:16.717Z,76.20
2019-04-04T05:28:45.546Z,74.70
2019-04-04T05:31:16.111Z,73.90
2019-04-04T05:33:44.926Z,73.50
2019-04-04T05:36:13.770Z,72.50
2019-04-04T05:38:42.891Z,71.60
2019-04-04T05:41:16.096Z,71.30
2019-04-04T05:43:43.672Z,71.00
2019-04-04T05:46:12.534Z,71.70
2019-04-04T05:48:41.420Z,70.80
2019-04-04T05:51:10.239Z,69.20
2019-04-04T05:53:39.169Z,68.50
2019-04-04T05:56:07.997Z,67.50
2019-04-04T05:58:36.871Z,65.30
2019-04-04T06:01:08.373Z,63.10
2019-04-04T06:03:37.177Z,62.20
2019-04-04T06:06:06.062Z,63.00
2019-04-04T06:08:34.942Z,62.40
2019-04-04T06:11:03.797Z,61.80
2019-04-04T06:13:32.642Z,62.30
2019-04-04T06:16:02.120Z,61.50
2019-04-04T06:18:32.058Z,60.40
2019-04-04T06:21:00.998Z,59.40
2019-04-04T06:23:29.885Z,56.50
2019-04-04T06:25:58.721Z,57.80
2019-04-04T06:28:27.572Z,52.70
2019-04-04T06:30:56.456Z,53.20
2019-04-04T06:33:25.293Z,48.50
2019-04-04T06:35:54.156Z,48.10
2019-04-04T06:38:24.023Z,46.60
2019-04-04T06:40:53.071Z,44.70
2019-04-04T06:43:21.919Z,43.50
2019-04-04T06:45:50.820Z,42.80
2019-04-04T06:48:19.662Z,42.60
2019-04-04T06:50:48.512Z,42.30
2019-04-04T06:53:18.035Z,42.40
2019-04-04T06:55:46.889Z,42.50
2019-04-04T06:58:17.120Z,41.80
2019-04-04T07:00:49.020Z,41.00
2019-04-04T07:03:16.746Z,40.80
2019-04-04T07:05:45.583Z,40.30
2019-04-04T07:08:15.155Z,40.40
2019-04-04T07:10:57.152Z,39.90
2019-04-04T07:13:22.133Z,39.90
2019-04-04T07:15:55.916Z,40.20
2019-04-04T07:18:17.106Z,40.30
2019-04-04T07:20:48.026Z,40.30
2019-04-04T07:23:16.490Z,40.00
2019-04-04T07:25:45.325Z,39.70
2019-04-04T07:28:14.189Z,37.80
2019-04-04T07:30:43.079Z,34.30
2019-04-04T07:33:12.675Z,34.10
2019-04-04T07:35:41.889Z,35.70
2019-04-04T07:38:10.766Z,36.50
2019-04-04T07:40:39.642Z,37.50
2019-04-04T07:43:08.798Z,37.30
2019-04-04T07:45:37.784Z,36.90
2019-04-04T07:48:06.650Z,36.50
2019-04-04T07:50:35.486Z,35.90
2019-04-04T07:53:05.221Z,35.80
2019-04-04T07:55:34.218Z,35.50
2019-04-04T07:58:03.056Z,35.60
2019-04-04T08:00:31.978Z,34.40
2019-04-04T08:03:00.835Z,32.90
2019-04-04T08:05:29.672Z,32.40
2019-04-04T08:07:58.563Z,32.10
2019-04-04T08:10:27.502Z,30.70
2019-04-04T08:12:56.352Z,30.70
2019-04-04T08:15:25.255Z,31.30
2019-04-04T08:17:54.160Z,31.10
2019-04-04T08:20:23.001Z,31.50
2019-04-04T08:22:52.017Z,31.30
2019-04-04T08:25:44.485Z,32.90
2019-04-04T08:28:13.493Z,32.90
2019-04-04T08:30:42.318Z,30.00
2019-04-04T08:33:11.198Z,28.40
2019-04-04T08:35:40.094Z,27.80
2019-04-04T08:38:08.916Z,28.20
2019-04-04T08:40:37.772Z,28.90
2019-04-04T08:43:06.672Z,30.20
2019-04-04T08:45:35.522Z,29.10
2019-04-04T08:48:04.474Z,28.60
2019-04-04T08:50:33.383Z,28.00
2019-04-04T08:53:02.216Z,27.00
2019-04-04T08:55:31.050Z,26.10
2019-04-04T08:57:59.949Z,25.50
2019-04-04T09:00:28.789Z,26.70
2019-04-04T09:02:57.622Z,28.00
2019-04-04T09:05:26.547Z,29.60
2019-04-04T09:07:55.417Z,30.00
2019-04-04T09:10:24.254Z,29.00
2019-04-04T09:12:53.139Z,29.80
2019-04-04T09:15:21.992Z,30.30
2019-04-04T09:17:50.843Z,31.00
2019-04-04T09:20:19.774Z,30.70
2019-04-04T09:22:48.581Z,30.10
2019-04-04T09:25:17.425Z,29.10
2019-04-04T09:27:55.264Z,28.70
2019-04-04T09:30:20.864Z,28.50
2019-04-04T09:32:49.722Z,27.30
2019-04-04T09:35:18.617Z,26.30
2019-04-04T09:37:47.459Z,26.10
2019-04-04T09:40:16.410Z,25.90
2019-04-04T09:42:45.294Z,26.10
2019-04-04T09:45:14.857Z,26.20
2019-04-04T09:47:43.686Z,27.40
2019-04-04T09:50:13.298Z,27.30
2019-04-04T09:52:42.185Z,27.80
2019-04-04T09:55:11.441Z,27.80
2019-04-04T09:57:40.352Z,28.60
2019-04-04T10:00:14.823Z,29.40
2019-04-04T10:02:43.724Z,30.30
2019-04-04T10:05:13.963Z,29.20
2019-04-04T10:07:42.824Z,29.50
2019-04-04T10:10:12.398Z,28.80
2019-04-04T10:12:41.259Z,27.70
2019-04-04T10:15:10.691Z,27.60
2019-04-04T10:17:39.565Z,27.60
2019-04-04T10:20:08.951Z,27.40
2019-04-04T10:22:37.800Z,27.80
2019-04-04T10:25:06.686Z,29.30
2019-04-04T10:27:35.539Z,30.50
2019-04-04T10:30:07.352Z,31.30
2019-04-04T10:32:36.249Z,32.10
2019-04-04T10:35:06.189Z,33.60
2019-04-04T10:37:35.050Z,34.40
2019-04-04T10:40:05.132Z,33.80
2019-04-04T10:42:33.968Z,33.10
2019-04-04T10:45:02.812Z,33.00
2019-04-04T10:47:31.689Z,33.50
2019-04-04T10:50:00.536Z,34.40
2019-04-04T10:52:29.386Z,33.60
2019-04-04T10:55:01.260Z,33.50
2019-04-04T10:57:28.781Z,33.90
2019-04-04T10:59:57.618Z,33.50
2019-04-04T11:02:26.503Z,33.90
2019-04-04T11:04:55.349Z,34.40
2019-04-04T11:07:24.195Z,35.40
2019-04-04T11:09:53.570Z,34.60
2019-04-04T11:12:22.413Z,35.00
2019-04-04T11:14:51.250Z,35.20
2019-04-04T11:17:20.233Z,34.90
2019-04-04T11:19:49.085Z,35.20
2019-04-04T11:22:17.951Z,34.80
2019-04-04T11:24:46.836Z,35.00
2019-04-04T11:27:17.495Z,34.80
2019-04-04T11:29:46.171Z,34.60
2019-04-04T11:32:15.066Z,34.90
2019-04-04T11:34:53.098Z,35.80
2019-04-04T11:37:14.385Z,35.00
2019-04-04T11:39:54.149Z,34.90
2019-04-04T11:42:14.241Z,34.30
2019-04-04T11:44:43.071Z,34.10
2019-04-04T11:47:11.975Z,34.20
2019-04-04T11:49:40.816Z,34.50
2019-04-04T11:52:09.646Z,34.20
2019-04-04T11:54:40.103Z,34.50
2019-04-04T11:57:08.945Z,34.20
2019-04-04T11:59:38.295Z,34.00
2019-04-04T12:02:08.330Z,33.90
2019-04-04T12:04:37.175Z,34.10
2019-04-04T12:07:06.027Z,34.40
2019-04-04T12:09:34.909Z,34.50
2019-04-04T12:12:04.036Z,34.30
2019-04-04T12:14:32.880Z,34.10
2019-04-04T12:17:01.783Z,34.50
2019-04-04T12:19:30.630Z,34.80
2019-04-04T12:21:59.467Z,34.60
2019-04-04T12:24:28.407Z,33.70
2019-04-04T12:26:57.238Z,34.10
2019-04-04T12:29:26.086Z,34.30
2019-04-04T12:31:54.982Z,34.90
2019-04-04T12:34:23.832Z,34.20
2019-04-04T12:36:52.693Z,34.40
2019-04-04T12:39:21.565Z,34.20
2019-04-04T12:41:50.410Z,35.40
2019-04-04T12:44:19.246Z,34.90
2019-04-04T12:46:48.341Z,35.00
2019-04-04T12:49:17.373Z,35.00
2019-04-04T12:51:46.175Z,34.90
2019-04-04T12:54:15.038Z,34.80
2019-04-04T12:56:43.883Z,34.60
2019-04-04T12:59:13.061Z,34.50
2019-04-04T13:01:41.948Z,34.30
2019-04-04T13:04:10.794Z,34.00
2019-04-04T13:06:39.651Z,33.70
2019-04-04T13:09:09.364Z,33.50
2019-04-04T13:11:39.077Z,33.90
2019-04-04T13:14:07.924Z,33.20
2019-04-04T13:16:36.833Z,34.00
2019-04-04T13:19:05.694Z,33.90
2019-04-04T13:21:43.150Z,34.50
2019-04-04T13:24:11.996Z,33.90
2019-04-04T13:26:40.861Z,33.90
2019-04-04T13:29:09.790Z,34.60
2019-04-04T13:31:38.644Z,34.60
2019-04-04T13:34:07.857Z,34.50
2019-04-04T13:36:36.965Z,35.10
2019-04-04T13:39:08.958Z,34.40
2019-04-04T13:41:37.790Z,34.40
2019-04-04T13:44:06.680Z,34.10
2019-04-04T13:46:35.523Z,34.10
2019-04-04T13:49:04.461Z,34.40
2019-04-04T13:51:33.385Z,34.40
2019-04-04T13:54:02.224Z,33.90
2019-04-04T13:56:31.085Z,34.30
2019-04-04T13:59:02.479Z,34.30
2019-04-04T14:01:30.515Z,34.10
2019-04-04T14:03:59.365Z,34.60
2019-04-04T14:06:28.246Z,34.90
2019-04-04T14:08:57.093Z,34.30
2019-04-04T14:11:25.951Z,35.20
2019-04-04T14:13:55.556Z,34.90
2019-04-04T14:16:24.503Z,34.90
2019-04-04T14:18:53.394Z,34.90
2019-04-04T14:21:22.299Z,34.70
2019-04-04T14:23:52.902Z,34.10
2019-04-04T14:26:21.751Z,34.10
2019-04-04T14:28:50.647Z,33.90
2019-04-04T14:31:19.501Z,33.80
2019-04-04T14:33:48.355Z,34.30
2019-04-04T14:36:17.698Z,34.10
2019-04-04T14:38:46.552Z,33.90
2019-04-04T14:41:15.381Z,33.70
2019-04-04T14:43:44.274Z,33.60
2019-04-04T14:46:13.150Z,33.40
2019-04-04T14:48:42.921Z,33.80
2019-04-04T14:51:12.101Z,33.70
2019-04-04T14:53:40.943Z,33.90
2019-04-04T14:56:09.797Z,34.30
2019-04-04T14:58:38.730Z,34.00
2019-04-04T15:01:07.677Z,34.30
2019-04-04T15:03:36.543Z,34.50
2019-04-04T15:06:05.556Z,34.50
2019-04-04T15:08:34.411Z,34.90
2019-04-04T15:11:03.262Z,35.30
2019-04-04T15:13:32.154Z,35.10
2019-04-04T15:16:14.626Z,35.50
2019-04-04T15:18:43.551Z,35.50
2019-04-04T15:21:12.483Z,36.00
2019-04-04T15:23:41.317Z,35.90
2019-04-04T15:26:10.259Z,36.00
2019-04-04T15:28:39.154Z,36.10
2019-04-04T15:31:08.857Z,36.00
2019-04-04T15:33:37.780Z,36.20
2019-04-04T15:36:06.639Z,36.30
2019-04-04T15:38:35.516Z,36.50
2019-04-04T15:41:04.761Z,36.60
2019-04-04T15:43:33.613Z,37.00
2019-04-04T15:46:02.483Z,36.80
2019-04-04T15:48:31.385Z,36.60
2019-04-04T15:51:00.242Z,36.70
2019-04-04T15:53:29.090Z,36.90
2019-04-04T15:55:58.001Z,37.10
2019-04-04T15:58:26.839Z,37.10
2019-04-04T16:00:55.949Z,37.10
2019-04-04T16:03:24.886Z,37.20
2019-04-04T16:05:53.829Z,37.10
2019-04-04T16:08:22.780Z,37.20
2019-04-04T16:10:51.681Z,37.10
2019-04-04T16:13:20.488Z,37.30
2019-04-04T16:15:49.317Z,37.00
2019-04-04T16:18:18.226Z,36.80
2019-04-04T16:20:47.154Z,37.20
2019-04-04T16:23:16.018Z,37.50
2019-04-04T16:25:44.932Z,37.60
2019-04-04T16:28:13.851Z,37.70
2019-04-04T16:30:42.771Z,37.90
2019-04-04T16:33:11.694Z,38.10
2019-04-04T16:35:40.550Z,38.30
2019-04-04T16:38:12.000Z,38.70
2019-04-04T16:40:40.900Z,38.70
2019-04-04T16:43:09.754Z,39.10
2019-04-04T16:45:38.606Z,39.10
2019-04-04T16:48:07.543Z,39.40
2019-04-04T16:50:36.390Z,40.00
2019-04-04T16:53:05.451Z,40.00
2019-04-04T16:55:34.365Z,40.00
2019-04-04T16:58:03.212Z,39.90
2019-04-04T17:00:32.067Z,40.00
2019-04-04T17:03:00.969Z,40.70
2019-04-04T17:05:29.832Z,40.30
2019-04-04T17:07:58.699Z,40.60
2019-04-04T17:10:28.294Z,41.00
2019-04-04T17:12:57.274Z,40.90
2019-04-04T17:15:26.121Z,41.00
2019-04-04T17:17:55.021Z,41.20
2019-04-04T17:20:23.881Z,41.50
2019-04-04T17:22:52.751Z,41.90
2019-04-04T17:25:21.665Z,42.10
2019-04-04T17:27:50.534Z,42.10
2019-04-04T17:30:19.831Z,42.10
2019-04-04T17:32:49.714Z,42.20
2019-04-04T17:35:20.227Z,42.40
2019-04-04T17:37:49.113Z,42.90
2019-04-04T17:40:18.210Z,43.00
2019-04-04T17:42:48.454Z,43.00
2019-04-04T17:45:17.600Z,43.00
2019-04-04T17:47:46.559Z,42.60
2019-04-04T17:50:18.994Z,42.60
2019-04-04T17:52:46.858Z,42.40
2019-04-04T17:55:16.470Z,42.70
2019-04-04T17:57:45.515Z,42.60
2019-04-04T18:00:16.223Z,42.50
2019-04-04T18:02:45.419Z,42.70
2019-04-04T18:05:19.401Z,42.70
2019-04-04T18:07:47.931Z,42.80
2019-04-04T18:10:18.381Z,43.10
2019-04-04T18:12:47.226Z,43.30
2019-04-04T18:15:16.307Z,43.60
2019-04-04T18:17:45.215Z,43.80
2019-04-04T18:20:14.089Z,43.90
2019-04-04T18:22:42.934Z,44.10
2019-04-04T18:25:12.533Z,44.50
2019-04-04T18:27:42.783Z,44.80
2019-04-04T18:30:12.925Z,44.80
2019-04-04T18:32:41.899Z,44.90
2019-04-04T18:35:10.962Z,44.70
2019-04-04T18:37:40.719Z,45.00
2019-04-04T18:40:10.732Z,45.20
2019-04-04T18:42:52.236Z,45.20
2019-04-04T18:45:10.506Z,45.10
2019-04-04T18:47:39.399Z,45.20
2019-04-04T18:50:08.747Z,45.20
2019-04-04T18:52:37.595Z,45.20
2019-04-04T18:55:19.111Z,45.10
2019-04-04T18:57:38.209Z,45.30
2019-04-04T19:00:10.014Z,45.20
2019-04-04T19:02:38.903Z,44.90
2019-04-04T19:05:08.539Z,44.90
2019-04-04T19:07:39.415Z,45.00
2019-04-04T19:10:08.741Z,45.10
2019-04-04T19:12:37.596Z,45.40
2019-04-04T19:15:08.055Z,46.00
2019-04-04T19:17:37.188Z,45.70
2019-04-04T19:20:10.336Z,46.30
2019-04-04T19:22:39.412Z,46.70
2019-04-04T19:25:08.649Z,47.00
2019-04-04T19:27:37.610Z,47.10
2019-04-04T19:30:08.541Z,47.30
2019-04-04T19:32:37.442Z,47.30
2019-04-04T19:35:08.218Z,47.60
2019-04-04T19:37:37.044Z,47.70
2019-04-04T19:40:08.209Z,51.60
2019-04-04T19:42:37.258Z,48.80
2019-04-04T19:45:09.117Z,48.80
2019-04-04T19:47:38.340Z,48.90
2019-04-04T19:50:11.743Z,49.30
2019-04-04T19:52:40.589Z,49.70
2019-04-04T19:55:10.063Z,49.70
2019-04-04T19:57:38.895Z,49.90
2019-04-04T20:00:09.717Z,50.30
2019-04-04T20:02:39.367Z,49.70
2019-04-04T20:05:08.542Z,49.90
2019-04-04T20:07:37.394Z,49.70
2019-04-04T20:10:07.385Z,49.50
2019-04-04T20:12:36.207Z,49.10
2019-04-04T20:15:07.570Z,49.00
2019-04-04T20:17:36.508Z,49.00
2019-04-04T20:20:07.370Z,49.30
2019-04-04T20:22:36.243Z,49.40
2019-04-04T20:25:06.779Z,49.60
2019-04-04T20:27:35.629Z,49.70
2019-04-04T20:30:07.442Z,49.60
2019-04-04T20:32:36.637Z,50.00
2019-04-04T20:35:07.388Z,50.00
2019-04-04T20:37:36.234Z,49.70
2019-04-04T20:40:06.545Z,49.10
2019-04-04T20:42:35.430Z,49.20
2019-04-04T20:45:05.484Z,49.10
2019-04-04T20:47:34.375Z,49.30
2019-04-04T20:50:03.903Z,49.40
2019-04-04T20:52:33.044Z,49.60
2019-04-04T20:55:02.104Z,49.10
2019-04-04T20:57:30.930Z,49.30
2019-04-04T20:59:59.850Z,49.50
2019-04-04T21:02:28.831Z,50.10
2019-04-04T21:04:57.676Z,50.20
2019-04-04T21:07:26.534Z,50.00
2019-04-04T21:09:55.443Z,49.70
2019-04-04T21:12:24.319Z,49.50
2019-04-04T21:14:53.184Z,49.10
2019-04-04T21:17:22.200Z,48.60
2019-04-04T21:19:51.036Z,48.20
2019-04-04T21:22:27.333Z,48.20
2019-04-04T21:24:50.442Z,48.20
2019-04-04T21:27:19.292Z,48.30
2019-04-04T21:29:48.163Z,48.20
2019-04-04T21:32:17.046Z,48.30
2019-04-04T21:34:45.911Z,48.30
2019-04-04T21:37:14.769Z,48.20
2019-04-04T21:39:43.703Z,48.30
2019-04-04T21:42:12.647Z,48.70
2019-04-04T21:44:42.406Z,49.30
2019-04-04T21:47:30.576Z,49.70
2019-04-04T21:49:59.399Z,50.00
2019-04-04T21:52:31.628Z,50.40
2019-04-04T21:55:00.594Z,50.90
2019-04-04T21:57:29.505Z,51.00
2019-04-04T21:59:58.343Z,51.00
2019-04-04T22:02:27.480Z,51.30
2019-04-04T22:04:56.410Z,51.80
2019-04-04T22:07:25.295Z,52.50
2019-04-04T22:09:54.193Z,52.90
2019-04-04T22:12:23.131Z,53.00
2019-04-04T22:14:51.961Z,53.10
2019-04-04T22:17:20.912Z,53.40
2019-04-04T22:19:49.791Z,54.10
2019-04-04T22:22:18.623Z,55.30
2019-04-04T22:24:47.510Z,55.20
2019-04-04T22:27:16.361Z,55.30
2019-04-04T22:29:45.217Z,55.10
2019-04-04T22:32:14.124Z,55.60
2019-04-04T22:34:43.003Z,56.30
2019-04-04T22:37:11.849Z,57.20
2019-04-04T22:39:40.771Z,56.50
2019-04-04T22:42:09.638Z,57.00
2019-04-04T22:44:38.509Z,57.60
2019-04-04T22:47:08.903Z,57.70
2019-04-04T22:49:37.758Z,56.90
2019-04-04T22:52:06.599Z,56.50
2019-04-04T22:54:35.513Z,56.00
2019-04-04T22:57:04.351Z,55.90
2019-04-04T22:59:33.227Z,56.40
2019-04-04T23:02:02.136Z,56.50
2019-04-04T23:04:30.997Z,57.30
2019-04-04T23:06:59.846Z,56.80
2019-04-04T23:09:28.752Z,56.60
2019-04-04T23:11:57.598Z,56.60
2019-04-04T23:14:26.453Z,56.90
2019-04-04T23:16:55.381Z,56.90
2019-04-04T23:19:24.254Z,57.50
2019-04-04T23:21:53.121Z,58.60
2019-04-04T23:24:22.050Z,57.90
2019-04-04T23:26:50.900Z,59.00
2019-04-04T23:29:19.764Z,59.60
2019-04-04T23:31:48.665Z,59.20
2019-04-04T23:34:17.522Z,58.50
2019-04-04T23:36:46.384Z,59.10
2019-04-04T23:39:15.685Z,59.60
2019-04-04T23:41:44.563Z,59.30
2019-04-04T23:44:13.404Z,59.00
2019-04-04T23:46:42.380Z,58.70
2019-04-04T23:49:12.099Z,58.40
2019-04-04T23:51:40.967Z,58.20
2019-04-04T23:54:09.866Z,58.30
2019-04-04T23:56:38.742Z,58.30
2019-04-04T23:59:07.598Z,58.50
